BOX523 OBBI-EBBR
Flight info
| Callsign | BOX523 |
|---|---|
| Flight time | N/A |
| Altitude | 36000 |
| Route | BHR300/30R BHR B457 NARMI N697 HIL T540 ENABI L550 NOVPA J981 DATOK L550 GENIV L324 LAKTO DCT OTHON DCT VAXOS UN128 RDS UL609 MES DCT DISOR DCT LONTA UL608 DOLEV DCT EVTON DCT NEMEK DCT VEKEN DCT UMVEG DCT KPT DCT TEDGO DCT IDOVI Z104 GESLO N852 LNO |
| Aircraft | B77L/H-SDE1E2E3FGHIJ2J3J4J5M1RWXY/LB1D1 |
Departure
| Time | 2026-05-04 17:44 |
|---|---|
| Airport | Bahrain International Airport (OBBI) |
Arrival
| Time | N/A |
|---|---|
| Airport | Brussels Airport (EBBR) |
| Time | Latitude | Longitude | Altitude | Speed | Heading |
|---|---|---|---|---|---|
| 2026-05-04 17:02 | 26.27822 | 50.61601 | 24 ft | 0 kts | 316° |
| 2026-05-04 17:29 | 26.27803 | 50.61624 | 26 ft | 4 kts | 308° |
| 2026-05-04 17:29 | 26.27748 | 50.61636 | 26 ft | 4 kts | 47° |
| 2026-05-04 17:30 | 26.27741 | 50.61628 | 26 ft | 0 kts | 46° |
| 2026-05-04 17:33 | 26.27750 | 50.61638 | 26 ft | 5 kts | 46° |
| 2026-05-04 17:33 | 26.27779 | 50.61674 | 25 ft | 7 kts | 51° |
| 2026-05-04 17:34 | 26.27770 | 50.61843 | 23 ft | 11 kts | 125° |
| 2026-05-04 17:34 | 26.27721 | 50.61928 | 21 ft | 15 kts | 123° |
| 2026-05-04 17:35 | 26.27504 | 50.62299 | 20 ft | 20 kts | 122° |
| 2026-05-04 17:35 | 26.27402 | 50.62475 | 8 ft | 2 kts | 123° |
| 2026-05-04 17:35 | 26.27399 | 50.62479 | 4 ft | 0 kts | 123° |
| 2026-05-04 17:37 | 26.27396 | 50.62485 | 3 ft | 3 kts | 123° |
| 2026-05-04 17:38 | 26.27372 | 50.62527 | 25 ft | 10 kts | 123° |
| 2026-05-04 17:38 | 26.27328 | 50.62603 | 23 ft | 12 kts | 123° |
| 2026-05-04 17:38 | 26.27282 | 50.62682 | 23 ft | 12 kts | 123° |
| 2026-05-04 17:38 | 26.27236 | 50.62762 | 28 ft | 13 kts | 122° |
| 2026-05-04 17:39 | 26.27089 | 50.62997 | 26 ft | 23 kts | 123° |
| 2026-05-04 17:39 | 26.27000 | 50.63151 | 27 ft | 26 kts | 123° |
| 2026-05-04 17:39 | 26.26897 | 50.63330 | 27 ft | 28 kts | 122° |
| 2026-05-04 17:40 | 26.26793 | 50.63512 | 25 ft | 28 kts | 122° |
| 2026-05-04 17:40 | 26.26689 | 50.63693 | 30 ft | 28 kts | 123° |
| 2026-05-04 17:40 | 26.26584 | 50.63874 | 31 ft | 28 kts | 122° |
| 2026-05-04 17:40 | 26.26480 | 50.64056 | 29 ft | 28 kts | 122° |
| 2026-05-04 17:41 | 26.26375 | 50.64237 | 27 ft | 28 kts | 122° |
| 2026-05-04 17:41 | 26.26271 | 50.64418 | 27 ft | 28 kts | 122° |
| 2026-05-04 17:41 | 26.26167 | 50.64600 | 26 ft | 28 kts | 122° |
| 2026-05-04 17:41 | 26.26062 | 50.64780 | 28 ft | 25 kts | 122° |
| 2026-05-04 17:42 | 26.26021 | 50.64869 | 28 ft | 12 kts | 108° |
| 2026-05-04 17:42 | 26.26045 | 50.64957 | 28 ft | 13 kts | 46° |
| 2026-05-04 17:42 | 26.26121 | 50.65006 | 25 ft | 13 kts | 359° |
| 2026-05-04 17:42 | 26.26175 | 50.64931 | 25 ft | 13 kts | 298° |
| 2026-05-04 17:43 | 26.26229 | 50.64841 | 21 ft | 19 kts | 304° |
| 2026-05-04 17:43 | 26.26413 | 50.64524 | 18 ft | 89 kts | 303° |
| 2026-05-04 17:43 | 26.26903 | 50.63678 | 19 ft | 170 kts | 303° |
| 2026-05-04 17:43 | 26.27618 | 50.62434 | 445 ft | 194 kts | 302° |
| 2026-05-04 17:44 | 26.28351 | 50.61174 | 1229 ft | 195 kts | 305° |
| 2026-05-04 17:44 | 26.28818 | 50.59715 | 1519 ft | 209 kts | 283° |
| 2026-05-04 17:44 | 26.29203 | 50.58118 | 1669 ft | 220 kts | 298° |
| 2026-05-04 17:44 | 26.29910 | 50.56546 | 1846 ft | 235 kts | 302° |
| 2026-05-04 17:45 | 26.30722 | 50.54915 | 2187 ft | 245 kts | 302° |
| 2026-05-04 17:45 | 26.31576 | 50.53228 | 2601 ft | 255 kts | 302° |
| 2026-05-04 17:45 | 26.32495 | 50.51512 | 3079 ft | 260 kts | 307° |
| 2026-05-04 17:45 | 26.33606 | 50.49931 | 3643 ft | 258 kts | 313° |
| 2026-05-04 17:46 | 26.34529 | 50.48203 | 4068 ft | 267 kts | 287° |
| 2026-05-04 17:46 | 26.34618 | 50.46126 | 4640 ft | 273 kts | 262° |
| 2026-05-04 17:46 | 26.34095 | 50.44083 | 5268 ft | 274 kts | 255° |
| 2026-05-04 17:46 | 26.33473 | 50.42065 | 5859 ft | 276 kts | 254° |
| 2026-05-04 17:47 | 26.32836 | 50.40029 | 6366 ft | 280 kts | 254° |
| 2026-05-04 17:47 | 26.32199 | 50.37981 | 6968 ft | 279 kts | 254° |
| 2026-05-04 17:47 | 26.31560 | 50.35936 | 7565 ft | 279 kts | 254° |
| 2026-05-04 17:47 | 26.30917 | 50.33891 | 8160 ft | 280 kts | 254° |
| 2026-05-04 17:48 | 26.30317 | 50.31834 | 8688 ft | 277 kts | 263° |
| 2026-05-04 17:48 | 26.30354 | 50.29714 | 9123 ft | 275 kts | 284° |
| 2026-05-04 17:48 | 26.30869 | 50.27662 | 9679 ft | 275 kts | 289° |
| 2026-05-04 17:48 | 26.31489 | 50.25640 | 10189 ft | 277 kts | 290° |
| 2026-05-04 17:49 | 26.32154 | 50.23567 | 10397 ft | 293 kts | 291° |
| 2026-05-04 17:49 | 26.32998 | 50.21435 | 10513 ft | 308 kts | 295° |
| 2026-05-04 17:49 | 26.33923 | 50.19207 | 10639 ft | 326 kts | 297° |
| 2026-05-04 17:49 | 26.35049 | 50.16949 | 10775 ft | 344 kts | 299° |
| 2026-05-04 17:50 | 26.36225 | 50.14558 | 11009 ft | 358 kts | 297° |
| 2026-05-04 17:50 | 26.37354 | 50.12043 | 11461 ft | 366 kts | 295° |
| 2026-05-04 17:50 | 26.38421 | 50.09441 | 12001 ft | 371 kts | 294° |
| 2026-05-04 17:50 | 26.39442 | 50.06785 | 12660 ft | 374 kts | 293° |
| 2026-05-04 17:51 | 26.40438 | 50.04090 | 13292 ft | 377 kts | 292° |
| 2026-05-04 17:51 | 26.41422 | 50.01367 | 13849 ft | 381 kts | 292° |
| 2026-05-04 17:51 | 26.42375 | 49.98710 | 14337 ft | 385 kts | 291° |
| 2026-05-04 17:51 | 26.43371 | 49.95919 | 14880 ft | 388 kts | 291° |
| 2026-05-04 17:52 | 26.44375 | 49.93108 | 15459 ft | 391 kts | 291° |
| 2026-05-04 17:52 | 26.45385 | 49.90277 | 15953 ft | 395 kts | 291° |
| 2026-05-04 17:52 | 26.46397 | 49.87441 | 16423 ft | 400 kts | 291° |
| 2026-05-04 17:52 | 26.47432 | 49.84543 | 16919 ft | 404 kts | 291° |
| 2026-05-04 17:53 | 26.48478 | 49.81611 | 17420 ft | 408 kts | 291° |
| 2026-05-04 17:53 | 26.49530 | 49.78654 | 17914 ft | 412 kts | 290° |
| 2026-05-04 17:53 | 26.50440 | 49.75608 | 18351 ft | 415 kts | 285° |
| 2026-05-04 17:53 | 26.51222 | 49.72495 | 18844 ft | 416 kts | 285° |
| 2026-05-04 17:54 | 26.51996 | 49.69376 | 19366 ft | 417 kts | 285° |
| 2026-05-04 17:54 | 26.52769 | 49.66256 | 19880 ft | 418 kts | 285° |
| 2026-05-04 17:54 | 26.53550 | 49.63117 | 20344 ft | 421 kts | 285° |
| 2026-05-04 17:54 | 26.54339 | 49.59960 | 20786 ft | 423 kts | 285° |
| 2026-05-04 17:55 | 26.55133 | 49.56790 | 21247 ft | 425 kts | 285° |
| 2026-05-04 17:55 | 26.55935 | 49.53599 | 21707 ft | 427 kts | 285° |
| 2026-05-04 17:55 | 26.56739 | 49.50398 | 22173 ft | 429 kts | 284° |
| 2026-05-04 17:55 | 26.57546 | 49.47185 | 22640 ft | 431 kts | 284° |
| 2026-05-04 17:56 | 26.58355 | 49.43960 | 23071 ft | 433 kts | 284° |
| 2026-05-04 17:56 | 26.59169 | 49.40711 | 23468 ft | 435 kts | 284° |
| 2026-05-04 17:56 | 26.59987 | 49.37446 | 23815 ft | 437 kts | 284° |
| 2026-05-04 17:56 | 26.60804 | 49.34177 | 24204 ft | 438 kts | 284° |
| 2026-05-04 17:57 | 26.61623 | 49.30898 | 24596 ft | 438 kts | 284° |
| 2026-05-04 17:57 | 26.62442 | 49.27616 | 25012 ft | 439 kts | 283° |
| 2026-05-04 17:57 | 26.63261 | 49.24331 | 25401 ft | 440 kts | 283° |
| 2026-05-04 17:57 | 26.64081 | 49.21035 | 25749 ft | 441 kts | 283° |
| 2026-05-04 17:58 | 26.64905 | 49.17723 | 26098 ft | 443 kts | 283° |
| 2026-05-04 17:58 | 26.65730 | 49.14399 | 26447 ft | 444 kts | 283° |
| 2026-05-04 17:58 | 26.66558 | 49.11064 | 26803 ft | 446 kts | 283° |
| 2026-05-04 17:58 | 26.67386 | 49.07722 | 27153 ft | 447 kts | 283° |
| 2026-05-04 17:59 | 26.68218 | 49.04363 | 27488 ft | 448 kts | 283° |
| 2026-05-04 17:59 | 26.69049 | 49.01002 | 27829 ft | 450 kts | 283° |
| 2026-05-04 17:59 | 26.70689 | 48.94362 | 28465 ft | 452 kts | 282° |
| 2026-05-04 18:00 | 26.71525 | 48.90971 | 28783 ft | 453 kts | 282° |
| 2026-05-04 18:00 | 26.72362 | 48.87569 | 29075 ft | 454 kts | 282° |
| 2026-05-04 18:00 | 26.73191 | 48.84200 | 29359 ft | 455 kts | 282° |
| 2026-05-04 18:00 | 26.74031 | 48.80783 | 29635 ft | 457 kts | 282° |
| 2026-05-04 18:01 | 26.74873 | 48.77354 | 29926 ft | 457 kts | 282° |
| 2026-05-04 18:01 | 26.75657 | 48.73916 | 30224 ft | 454 kts | 278° |
| 2026-05-04 18:01 | 26.76150 | 48.70443 | 30568 ft | 450 kts | 274° |
| 2026-05-04 18:02 | 26.76471 | 48.63493 | 31156 ft | 446 kts | 266° |
| 2026-05-04 18:02 | 26.76367 | 48.60019 | 31330 ft | 448 kts | 266° |
| 2026-05-04 18:02 | 26.76248 | 48.56543 | 31616 ft | 446 kts | 266° |
| 2026-05-04 18:02 | 26.76131 | 48.53067 | 31751 ft | 449 kts | 266° |
| 2026-05-04 18:03 | 26.75920 | 48.46094 | 31813 ft | 447 kts | 266° |
| 2026-05-04 18:03 | 26.75722 | 48.39174 | 31814 ft | 445 kts | 266° |
| 2026-05-04 18:04 | 26.75523 | 48.32250 | 31828 ft | 446 kts | 266° |
| 2026-05-04 18:05 | 26.75246 | 48.21836 | 31820 ft | 447 kts | 266° |
| 2026-05-04 18:05 | 26.75057 | 48.14871 | 31832 ft | 448 kts | 266° |
| 2026-05-04 18:06 | 26.74765 | 48.04398 | 31838 ft | 450 kts | 266° |
| 2026-05-04 18:06 | 26.74560 | 47.97216 | 31834 ft | 451 kts | 266° |
| 2026-05-04 18:07 | 26.74320 | 47.88279 | 31839 ft | 451 kts | 267° |
| 2026-05-04 18:07 | 26.74622 | 47.81296 | 31862 ft | 452 kts | 270° |
| 2026-05-04 18:08 | 26.75001 | 47.74276 | 31840 ft | 451 kts | 270° |
| 2026-05-04 18:08 | 26.75439 | 47.65696 | 31835 ft | 448 kts | 270° |
| 2026-05-04 18:09 | 26.76796 | 47.38162 | 31850 ft | 439 kts | 272° |
| 2026-05-04 18:10 | 26.78773 | 47.24686 | 31846 ft | 438 kts | 276° |
| 2026-05-04 18:10 | 26.80833 | 47.11293 | 31838 ft | 435 kts | 276° |
| 2026-05-04 18:11 | 26.82817 | 46.98213 | 31837 ft | 434 kts | 276° |
| 2026-05-04 18:11 | 26.84822 | 46.84914 | 31855 ft | 433 kts | 276° |
| 2026-05-04 18:12 | 26.86816 | 46.71601 | 31838 ft | 433 kts | 276° |
| 2026-05-04 18:12 | 26.88796 | 46.58295 | 31836 ft | 433 kts | 276° |
| 2026-05-04 18:13 | 26.90762 | 46.44999 | 31855 ft | 433 kts | 276° |
| 2026-05-04 18:14 | 26.93722 | 46.25039 | 31831 ft | 433 kts | 276° |
| 2026-05-04 18:14 | 26.95361 | 46.13967 | 31819 ft | 433 kts | 276° |
| 2026-05-04 18:15 | 26.99549 | 45.85372 | 31835 ft | 433 kts | 275° |
| 2026-05-04 18:16 | 27.01165 | 45.74218 | 31839 ft | 433 kts | 275° |
| 2026-05-04 18:16 | 27.03086 | 45.60887 | 31860 ft | 432 kts | 275° |
| 2026-05-04 18:17 | 27.05854 | 45.40927 | 31842 ft | 430 kts | 274° |
| 2026-05-04 18:18 | 27.08029 | 45.21045 | 31863 ft | 430 kts | 273° |
| 2026-05-04 18:18 | 27.09503 | 45.07731 | 31846 ft | 430 kts | 273° |
| 2026-05-04 18:19 | 27.11663 | 44.88020 | 31835 ft | 429 kts | 272° |
| 2026-05-04 18:19 | 27.13104 | 44.74728 | 31850 ft | 429 kts | 272° |
| 2026-05-04 18:20 | 27.14530 | 44.61427 | 31865 ft | 429 kts | 272° |
| 2026-05-04 18:20 | 27.15942 | 44.48139 | 31853 ft | 428 kts | 272° |
| 2026-05-04 18:21 | 27.17341 | 44.34844 | 31861 ft | 429 kts | 272° |
| 2026-05-04 18:21 | 27.18713 | 44.21555 | 31873 ft | 428 kts | 272° |
| 2026-05-04 18:22 | 27.20071 | 44.08286 | 31861 ft | 427 kts | 272° |
| 2026-05-04 18:22 | 27.21391 | 43.95282 | 31863 ft | 426 kts | 272° |
| 2026-05-04 18:23 | 27.22720 | 43.82052 | 31861 ft | 426 kts | 272° |
| 2026-05-04 18:23 | 27.24036 | 43.68834 | 31876 ft | 426 kts | 272° |
| 2026-05-04 18:24 | 27.25348 | 43.55592 | 31884 ft | 427 kts | 272° |
| 2026-05-04 18:24 | 27.26648 | 43.42344 | 31910 ft | 427 kts | 272° |
| 2026-05-04 18:25 | 27.27928 | 43.29171 | 31895 ft | 427 kts | 272° |
| 2026-05-04 18:25 | 27.29204 | 43.15911 | 31897 ft | 427 kts | 272° |
| 2026-05-04 18:26 | 27.30467 | 43.02661 | 31874 ft | 426 kts | 272° |
| 2026-05-04 18:26 | 27.31690 | 42.89690 | 31919 ft | 425 kts | 271° |
| 2026-05-04 18:27 | 27.32925 | 42.76453 | 31904 ft | 425 kts | 271° |
| 2026-05-04 18:27 | 27.34146 | 42.63238 | 31915 ft | 425 kts | 271° |
| 2026-05-04 18:28 | 27.35355 | 42.50014 | 31926 ft | 425 kts | 271° |
| 2026-05-04 18:28 | 27.36550 | 42.36774 | 31938 ft | 425 kts | 271° |
| 2026-05-04 18:29 | 27.37726 | 42.23538 | 31948 ft | 424 kts | 271° |
| 2026-05-04 18:29 | 27.38889 | 42.10315 | 31965 ft | 425 kts | 271° |
| 2026-05-04 18:30 | 27.40592 | 41.90684 | 31964 ft | 426 kts | 271° |
| 2026-05-04 18:31 | 27.41728 | 41.77412 | 31976 ft | 426 kts | 271° |
| 2026-05-04 18:31 | 27.44772 | 41.64398 | 31975 ft | 440 kts | 288° |
| 2026-05-04 18:32 | 27.50010 | 41.54660 | 32028 ft | 446 kts | 295° |
| 2026-05-04 18:32 | 27.55897 | 41.44237 | 32014 ft | 447 kts | 294° |
| 2026-05-04 18:33 | 27.62500 | 41.32326 | 31961 ft | 450 kts | 294° |
| 2026-05-04 18:33 | 27.69107 | 41.20377 | 31957 ft | 448 kts | 294° |
| 2026-05-04 18:34 | 27.75684 | 41.08448 | 31947 ft | 447 kts | 294° |
| 2026-05-04 18:34 | 27.82102 | 40.96767 | 31964 ft | 445 kts | 294° |
| 2026-05-04 18:35 | 27.88611 | 40.84857 | 31936 ft | 446 kts | 294° |
| 2026-05-04 18:35 | 27.95110 | 40.72940 | 31964 ft | 445 kts | 294° |
| 2026-05-04 18:36 | 28.01593 | 40.61023 | 31958 ft | 446 kts | 294° |
| 2026-05-04 18:36 | 28.08083 | 40.49053 | 31952 ft | 446 kts | 294° |
| 2026-05-04 18:37 | 28.14583 | 40.37036 | 31961 ft | 448 kts | 294° |
| 2026-05-04 18:37 | 28.21087 | 40.24973 | 31970 ft | 449 kts | 294° |
| 2026-05-04 18:38 | 28.27599 | 40.12865 | 31947 ft | 450 kts | 294° |
| 2026-05-04 18:38 | 28.34941 | 40.01326 | 31963 ft | 458 kts | 301° |
| 2026-05-04 18:39 | 28.42845 | 39.90304 | 31950 ft | 459 kts | 301° |
| 2026-05-04 18:39 | 28.50859 | 39.79007 | 31975 ft | 460 kts | 301° |
| 2026-05-04 18:40 | 28.58898 | 39.67645 | 31956 ft | 461 kts | 301° |
| 2026-05-04 18:40 | 28.66938 | 39.56252 | 31979 ft | 461 kts | 301° |
| 2026-05-04 18:41 | 28.74952 | 39.44865 | 31976 ft | 461 kts | 301° |
| 2026-05-04 18:41 | 28.82948 | 39.33470 | 31988 ft | 459 kts | 301° |
| 2026-05-04 18:42 | 28.90909 | 39.22095 | 31984 ft | 459 kts | 301° |
| 2026-05-04 18:42 | 28.98857 | 39.10708 | 32011 ft | 458 kts | 301° |
| 2026-05-04 18:43 | 29.06603 | 38.99578 | 31988 ft | 457 kts | 301° |
| 2026-05-04 18:43 | 29.09183 | 38.95268 | 31979 ft | 442 kts | 288° |
| 2026-05-04 18:43 | 29.10760 | 38.89881 | 31984 ft | 432 kts | 277° |
| 2026-05-04 18:43 | 29.11164 | 38.83120 | 32029 ft | 426 kts | 266° |
| 2026-05-04 18:44 | 29.11065 | 38.76308 | 32019 ft | 431 kts | 266° |
| 2026-05-04 18:44 | 29.10955 | 38.62498 | 31997 ft | 436 kts | 266° |
| 2026-05-04 18:45 | 29.10876 | 38.48662 | 31982 ft | 433 kts | 266° |
| 2026-05-04 18:45 | 29.10780 | 38.35061 | 31987 ft | 424 kts | 266° |
| 2026-05-04 18:46 | 29.10656 | 38.21622 | 31999 ft | 424 kts | 266° |
| 2026-05-04 18:46 | 29.10518 | 38.08037 | 32022 ft | 429 kts | 266° |
| 2026-05-04 18:47 | 29.10372 | 37.94618 | 32015 ft | 431 kts | 266° |
| 2026-05-04 18:47 | 29.10222 | 37.82092 | 31968 ft | 433 kts | 266° |
| 2026-05-04 18:48 | 29.10048 | 37.68581 | 31992 ft | 432 kts | 266° |
| 2026-05-04 18:48 | 29.09859 | 37.54962 | 31995 ft | 431 kts | 266° |
| 2026-05-04 18:49 | 29.09725 | 37.41263 | 31996 ft | 430 kts | 266° |
| 2026-05-04 18:49 | 29.09640 | 37.27595 | 32005 ft | 429 kts | 266° |
| 2026-05-04 18:50 | 29.09530 | 37.13961 | 32004 ft | 429 kts | 266° |
| 2026-05-04 18:50 | 29.09405 | 37.00351 | 32005 ft | 428 kts | 266° |
| 2026-05-04 18:51 | 29.09269 | 36.86986 | 32007 ft | 428 kts | 266° |
| 2026-05-04 18:51 | 29.09117 | 36.73389 | 32037 ft | 428 kts | 266° |
| 2026-05-04 18:52 | 29.08953 | 36.59783 | 31966 ft | 428 kts | 266° |
| 2026-05-04 18:52 | 29.08798 | 36.47892 | 32034 ft | 426 kts | 266° |
| 2026-05-04 18:53 | 29.08440 | 36.34336 | 32012 ft | 426 kts | 265° |
| 2026-05-04 18:53 | 29.08050 | 36.20799 | 32025 ft | 426 kts | 265° |
| 2026-05-04 18:54 | 29.07659 | 36.07242 | 32017 ft | 427 kts | 265° |
| 2026-05-04 18:54 | 29.07263 | 35.93978 | 32021 ft | 427 kts | 265° |
| 2026-05-04 18:55 | 29.06844 | 35.80435 | 32026 ft | 426 kts | 265° |
| 2026-05-04 18:55 | 29.06191 | 35.60109 | 32047 ft | 428 kts | 265° |
| 2026-05-04 18:56 | 29.05736 | 35.46507 | 32053 ft | 429 kts | 265° |
| 2026-05-04 18:56 | 29.05337 | 35.34875 | 32041 ft | 430 kts | 265° |
| 2026-05-04 18:57 | 29.05098 | 35.28048 | 32055 ft | 430 kts | 265° |
| 2026-05-04 18:57 | 29.04855 | 35.21217 | 32037 ft | 430 kts | 265° |
| 2026-05-04 18:58 | 29.04609 | 35.14392 | 32040 ft | 428 kts | 265° |
| 2026-05-04 18:58 | 29.04362 | 35.07605 | 32035 ft | 427 kts | 265° |
| 2026-05-04 18:59 | 29.04111 | 35.00848 | 32035 ft | 425 kts | 265° |
| 2026-05-04 18:59 | 29.03863 | 34.94231 | 32037 ft | 425 kts | 265° |
| 2026-05-04 19:00 | 29.03606 | 34.87480 | 32032 ft | 425 kts | 265° |
| 2026-05-04 19:00 | 29.03392 | 34.80734 | 32015 ft | 425 kts | 266° |
| 2026-05-04 19:01 | 29.03469 | 34.72253 | 32007 ft | 428 kts | 279° |
| 2026-05-04 19:01 | 29.05118 | 34.67748 | 32039 ft | 440 kts | 295° |
| 2026-05-04 19:01 | 29.08981 | 34.62435 | 32000 ft | 460 kts | 316° |
| 2026-05-04 19:01 | 29.12019 | 34.60104 | 32046 ft | 464 kts | 319° |
| 2026-05-04 19:02 | 29.32783 | 34.44688 | 32140 ft | 465 kts | 317° |
| 2026-05-04 19:02 | 29.56504 | 34.26521 | 32080 ft | 461 kts | 318° |
| 2026-05-04 19:03 | 29.99308 | 33.99797 | 32122 ft | 465 kts | 323° |
| 2026-05-04 19:03 | 30.44194 | 33.72161 | 32083 ft | 463 kts | 323° |
| 2026-05-04 19:04 | 30.89606 | 33.43906 | 32087 ft | 464 kts | 324° |
| 2026-05-04 19:04 | 31.33193 | 33.16590 | 32061 ft | 467 kts | 328° |
| 2026-05-04 19:05 | 31.46633 | 33.13547 | 32061 ft | 492 kts | 350° |
| 2026-05-04 19:05 | 31.57022 | 33.13272 | 32060 ft | 492 kts | 351° |
| 2026-05-04 19:05 | 31.77690 | 33.12053 | 31988 ft | 479 kts | 339° |
| 2026-05-04 19:05 | 31.81139 | 33.10590 | 32078 ft | 459 kts | 324° |
| 2026-05-04 19:06 | 31.85331 | 33.06850 | 32038 ft | 437 kts | 306° |
| 2026-05-04 19:06 | 31.88516 | 33.02747 | 32046 ft | 438 kts | 306° |
| 2026-05-04 19:06 | 32.20763 | 32.62283 | 32110 ft | 443 kts | 306° |
| 2026-05-04 19:07 | 32.53926 | 32.20279 | 32010 ft | 426 kts | 306° |
| 2026-05-04 19:07 | 32.85443 | 31.83703 | 32139 ft | 441 kts | 310° |
| 2026-05-04 19:08 | 32.91320 | 31.77129 | 32079 ft | 443 kts | 310° |
| 2026-05-04 19:08 | 33.02072 | 31.65087 | 32043 ft | 440 kts | 310° |
| 2026-05-04 19:09 | 33.27339 | 31.36614 | 32037 ft | 435 kts | 310° |
| 2026-05-04 19:09 | 33.61724 | 30.97493 | 32037 ft | 433 kts | 310° |
| 2026-05-04 19:10 | 33.96593 | 30.57347 | 32055 ft | 438 kts | 311° |
| 2026-05-04 19:10 | 34.20088 | 30.30012 | 32068 ft | 453 kts | 313° |
| 2026-05-04 19:11 | 34.52908 | 29.91257 | 31970 ft | 454 kts | 311° |
| 2026-05-04 19:11 | 34.87679 | 29.47905 | 31970 ft | 448 kts | 313° |
| 2026-05-04 19:12 | 35.02163 | 29.30645 | 31990 ft | 459 kts | 321° |
| 2026-05-04 19:12 | 35.30322 | 29.05047 | 31954 ft | 459 kts | 322° |
| 2026-05-04 19:13 | 35.69885 | 28.68463 | 31970 ft | 453 kts | 322° |
| 2026-05-04 19:13 | 36.09767 | 28.31084 | 32032 ft | 463 kts | 323° |
| 2026-05-04 19:14 | 36.41777 | 27.99416 | 31990 ft | 466 kts | 318° |
| 2026-05-04 19:14 | 36.69888 | 27.66593 | 32012 ft | 465 kts | 319° |
| 2026-05-04 19:15 | 37.07477 | 27.22426 | 32043 ft | 465 kts | 319° |
| 2026-05-04 19:15 | 37.43620 | 26.79595 | 32011 ft | 468 kts | 322° |
| 2026-05-04 19:16 | 37.82633 | 26.37455 | 32089 ft | 469 kts | 322° |
| 2026-05-04 19:16 | 38.19924 | 25.96450 | 32100 ft | 473 kts | 321° |
| 2026-05-04 19:17 | 38.60183 | 25.55707 | 32060 ft | 476 kts | 323° |
| 2026-05-04 19:17 | 39.01680 | 25.13608 | 32097 ft | 479 kts | 323° |
| 2026-05-04 19:18 | 39.42460 | 24.71646 | 32090 ft | 481 kts | 322° |
| 2026-05-04 19:18 | 39.84143 | 24.28093 | 32075 ft | 481 kts | 322° |
| 2026-05-04 19:19 | 40.24763 | 23.84949 | 32064 ft | 482 kts | 321° |
| 2026-05-04 19:19 | 40.66337 | 23.40086 | 32080 ft | 485 kts | 321° |
| 2026-05-04 19:20 | 40.77844 | 23.27535 | 32066 ft | 485 kts | 321° |
| 2026-05-04 19:20 | 40.83039 | 23.21839 | 32073 ft | 485 kts | 320° |
| 2026-05-04 19:21 | 40.88230 | 23.16145 | 32072 ft | 485 kts | 320° |
| 2026-05-04 19:21 | 40.93416 | 23.10445 | 32073 ft | 485 kts | 321° |
| 2026-05-04 19:22 | 40.98591 | 23.04747 | 32071 ft | 484 kts | 320° |
| 2026-05-04 19:22 | 41.03655 | 22.99158 | 32075 ft | 483 kts | 321° |
| 2026-05-04 19:23 | 41.08806 | 22.93460 | 32068 ft | 482 kts | 320° |
| 2026-05-04 19:23 | 41.13916 | 22.87796 | 32075 ft | 482 kts | 320° |
| 2026-05-04 19:24 | 41.19058 | 22.82083 | 32070 ft | 482 kts | 320° |
| 2026-05-04 19:24 | 41.24186 | 22.76346 | 32069 ft | 482 kts | 319° |
| 2026-05-04 19:25 | 41.28839 | 22.69953 | 32078 ft | 481 kts | 313° |
| 2026-05-04 19:25 | 41.33296 | 22.63332 | 32077 ft | 480 kts | 312° |
| 2026-05-04 19:26 | 41.37751 | 22.56723 | 32087 ft | 479 kts | 312° |
| 2026-05-04 19:26 | 41.42215 | 22.50141 | 32086 ft | 479 kts | 313° |
| 2026-05-04 19:27 | 41.46699 | 22.43539 | 32397 ft | 480 kts | 313° |
| 2026-05-04 19:27 | 41.48925 | 22.40257 | 33014 ft | 473 kts | 313° |
| 2026-05-04 19:27 | 41.51111 | 22.37029 | 33698 ft | 465 kts | 314° |
| 2026-05-04 19:27 | 41.53267 | 22.33840 | 34116 ft | 463 kts | 314° |
| 2026-05-04 19:28 | 41.55430 | 22.30640 | 34086 ft | 464 kts | 314° |
| 2026-05-04 19:28 | 41.59731 | 22.24265 | 34087 ft | 459 kts | 314° |
| 2026-05-04 19:29 | 41.63996 | 22.17928 | 34090 ft | 458 kts | 314° |
| 2026-05-04 19:29 | 41.68244 | 22.11604 | 34081 ft | 457 kts | 314° |
| 2026-05-04 19:30 | 41.72482 | 22.05281 | 34090 ft | 456 kts | 314° |
| 2026-05-04 19:30 | 41.76622 | 21.99091 | 34087 ft | 455 kts | 314° |
| 2026-05-04 19:31 | 41.78697 | 21.95982 | 34097 ft | 454 kts | 314° |
| 2026-05-04 19:31 | 41.82907 | 21.89668 | 34111 ft | 454 kts | 314° |
| 2026-05-04 19:32 | 41.87118 | 21.83338 | 34121 ft | 455 kts | 314° |
| 2026-05-04 19:32 | 41.93338 | 21.73963 | 34127 ft | 455 kts | 314° |
| 2026-05-04 19:33 | 42.24974 | 21.25438 | 34113 ft | 460 kts | 313° |